Time;durP1;ratioP1;P1;durP2;ratioP2;P2;SDS_P1;SDS_P2;PMS_P1;PMS_P2;Temp;Humidity;BMP_temperature;BMP_pressure;BME280_temperature;BME280_humidity;BME280_pressure;Samples;Min_cycle;Max_cycle;Signal;HPM_P1;HPM_P2
2023/06/17 00:00:31;;;;;;;5.30;4.60;;;12.30;99.90;;;;;;5049970;28;20463;-79
2023/06/17 00:02:58;;;;;;;4.60;4.20;;;12.20;99.90;;;;;;5046589;28;20461;-81
2023/06/17 00:05:27;;;;;;;6.87;4.13;;;12.10;99.90;;;;;;5045807;28;20516;-80
2023/06/17 00:07:54;;;;;;;5.47;5.00;;;12.10;99.90;;;;;;5048344;28;20473;-79
2023/06/17 00:10:21;;;;;;;5.47;4.97;;;12.10;99.90;;;;;;5049883;28;20476;-80
2023/06/17 00:12:48;;;;;;;4.40;4.10;;;12.10;99.90;;;;;;5047108;28;21128;-79
2023/06/17 00:15:18;;;;;;;4.20;3.80;;;12.10;99.90;;;;;;5034750;28;20449;-80
2023/06/17 00:17:46;;;;;;;5.40;4.50;;;12.10;99.90;;;;;;5042943;28;20452;-79
2023/06/17 00:20:14;;;;;;;6.50;4.90;;;12.10;99.90;;;;;;5036003;28;20461;-79
2023/06/17 00:22:44;;;;;;;5.40;4.70;;;12.10;99.90;;;;;;5041983;28;20461;-79
2023/06/17 00:25:12;;;;;;;4.87;4.47;;;12.20;99.90;;;;;;5038122;28;21086;-79
2023/06/17 00:27:40;;;;;;;5.00;4.50;;;12.20;99.90;;;;;;5036832;28;20478;-80
2023/06/17 00:30:08;;;;;;;4.83;4.10;;;12.20;99.90;;;;;;5038048;28;20486;-79
2023/06/17 00:32:36;;;;;;;6.53;5.53;;;12.10;99.90;;;;;;5042874;28;20552;-80
2023/06/17 00:35:04;;;;;;;6.30;5.53;;;12.10;99.90;;;;;;5031922;28;20457;-80
2023/06/17 00:37:31;;;;;;;4.23;3.83;;;12.10;99.90;;;;;;5061222;28;20458;-79
2023/06/17 00:39:59;;;;;;;4.80;4.40;;;12.10;99.90;;;;;;5054995;28;20461;-79
2023/06/17 00:42:26;;;;;;;5.80;5.40;;;12.10;99.90;;;;;;5052774;28;20461;-80
2023/06/17 00:44:53;;;;;;;5.73;4.70;;;12.00;99.90;;;;;;5051768;28;20524;-80
2023/06/17 00:47:21;;;;;;;4.70;4.40;;;12.00;99.90;;;;;;5048158;28;20488;-80
2023/06/17 00:49:48;;;;;;;5.13;4.67;;;12.00;99.90;;;;;;5048156;28;20493;-80
2023/06/17 00:52:16;;;;;;;5.77;4.87;;;12.00;99.90;;;;;;5049286;28;20463;-80
2023/06/17 00:54:43;;;;;;;4.90;4.33;;;12.10;99.90;;;;;;5048161;28;20551;-80
2023/06/17 00:57:13;;;;;;;5.23;4.80;;;12.00;99.90;;;;;;5048931;28;20481;-80
2023/06/17 00:59:42;;;;;;;5.60;4.70;;;12.00;99.90;;;;;;5043065;28;20512;-79
2023/06/17 01:02:13;;;;;;;4.23;3.93;;;12.00;99.90;;;;;;5044414;28;20445;-80
2023/06/17 01:04:43;;;;;;;4.17;3.77;;;12.00;99.90;;;;;;5043528;28;20587;-80
2023/06/17 01:07:29;;;;;;;5.20;4.47;;;11.90;99.90;;;;;;5048649;28;20906;-79
2023/06/17 01:10:02;;;;;;;4.93;3.90;;;11.80;99.90;;;;;;5047490;28;20461;-80
2023/06/17 01:12:31;;;;;;;4.70;4.40;;;11.80;99.90;;;;;;5048892;28;20472;-79
2023/06/17 01:15:01;;;;;;;4.23;3.87;;;11.80;99.90;;;;;;5049197;28;20477;-79
2023/06/17 01:17:29;;;;;;;4.33;4.03;;;11.80;99.90;;;;;;5037321;28;20783;-80
2023/06/17 01:19:57;;;;;;;5.30;4.80;;;11.90;99.90;;;;;;5045769;28;20874;-80
2023/06/17 01:22:26;;;;;;;4.20;3.80;;;12.00;99.90;;;;;;5046836;28;20465;-79
2023/06/17 01:25:01;;;;;;;4.43;4.03;;;12.00;99.90;;;;;;5048011;28;20484;-80
2023/06/17 01:27:28;;;;;;;3.50;3.30;;;12.10;99.90;;;;;;5035364;28;20453;-80
2023/06/17 01:29:55;;;;;;;4.87;4.27;;;12.10;99.90;;;;;;5044927;28;20468;-81
2023/06/17 01:32:22;;;;;;;4.10;3.70;;;12.10;99.90;;;;;;5046898;28;20469;-80
2023/06/17 01:34:55;;;;;;;4.87;4.47;;;12.10;99.90;;;;;;5042674;28;20550;-80
2023/06/17 01:37:29;;;;;;;5.20;4.10;;;12.20;99.90;;;;;;5045798;28;20468;-79
2023/06/17 01:39:58;;;;;;;3.83;3.50;;;12.20;99.90;;;;;;5036186;28;20497;-80
2023/06/17 01:42:32;;;;;;;5.43;4.80;;;12.30;99.90;;;;;;5036134;28;20464;-82
2023/06/17 01:45:01;;;;;;;4.80;3.33;;;12.30;99.90;;;;;;5030905;28;20482;-80
2023/06/17 01:47:28;;;;;;;4.57;4.17;;;12.40;99.90;;;;;;5032221;28;20469;-80
2023/06/17 01:49:59;;;;;;;4.30;3.60;;;12.40;99.90;;;;;;5044938;28;20469;-80
2023/06/17 01:52:26;;;;;;;4.67;4.20;;;12.50;99.90;;;;;;5040869;28;20974;-79
2023/06/17 01:54:53;;;;;;;5.13;3.97;;;12.60;99.90;;;;;;5047500;28;20536;-80
2023/06/17 01:57:22;;;;;;;4.20;3.90;;;12.60;99.90;;;;;;5042982;28;20515;-79
2023/06/17 01:59:49;;;;;;;7.43;4.73;;;12.50;99.90;;;;;;5038204;28;20540;-80
2023/06/17 02:02:16;;;;;;;4.80;3.70;;;12.60;99.90;;;;;;5043720;28;20461;-81
2023/06/17 02:04:43;;;;;;;6.00;4.00;;;12.60;99.90;;;;;;5046057;28;20516;-79
2023/06/17 02:07:11;;;;;;;4.93;3.90;;;12.60;99.90;;;;;;5065631;28;20445;-80
2023/06/17 02:09:38;;;;;;;4.13;3.73;;;12.60;99.90;;;;;;5055011;28;20939;-80
2023/06/17 02:12:06;;;;;;;4.00;3.70;;;12.60;99.90;;;;;;5052219;28;20473;-81
2023/06/17 02:14:34;;;;;;;4.80;3.80;;;12.60;99.90;;;;;;5048994;28;21175;-81
2023/06/17 02:17:02;;;;;;;4.70;4.23;;;12.60;99.90;;;;;;5042580;28;20454;-81
2023/06/17 02:19:31;;;;;;;4.93;4.40;;;12.60;99.90;;;;;;5046227;28;20453;-79
2023/06/17 02:21:59;;;;;;;3.97;3.67;;;12.70;99.90;;;;;;5047004;28;20880;-81
2023/06/17 02:24:27;;;;;;;3.70;3.40;;;12.70;99.90;;;;;;5044529;28;20504;-79
2023/06/17 02:26:55;;;;;;;5.80;3.97;;;12.70;99.90;;;;;;5044188;28;20922;-79
2023/06/17 02:29:22;;;;;;;5.57;4.50;;;12.80;99.90;;;;;;5046597;28;20540;-81
2023/06/17 02:31:51;;;;;;;3.73;3.43;;;12.80;99.90;;;;;;5044571;28;20489;-81
2023/06/17 02:34:19;;;;;;;3.70;3.40;;;12.80;99.90;;;;;;5044847;28;20460;-79
2023/06/17 02:36:46;;;;;;;5.37;3.90;;;12.90;99.90;;;;;;5040487;28;20480;-81
2023/06/17 02:39:13;;;;;;;4.40;4.10;;;12.90;99.90;;;;;;5046750;28;20742;-80
2023/06/17 02:41:40;;;;;;;5.73;3.47;;;12.90;99.90;;;;;;5043999;28;21001;-80
2023/06/17 02:44:07;;;;;;;6.57;5.10;;;12.90;99.90;;;;;;5043696;28;20497;-80
2023/06/17 02:46:34;;;;;;;5.20;3.83;;;12.90;99.90;;;;;;5045498;28;20489;-80
2023/06/17 02:49:03;;;;;;;4.80;4.00;;;12.90;99.90;;;;;;5045551;28;20503;-81
2023/06/17 02:51:30;;;;;;;5.07;4.57;;;12.90;99.90;;;;;;5041239;28;20496;-80
2023/06/17 02:53:57;;;;;;;6.70;5.00;;;12.80;99.90;;;;;;5045411;28;21127;-81
2023/06/17 02:56:24;;;;;;;5.23;4.73;;;12.90;99.90;;;;;;5046467;28;20493;-80
2023/06/17 02:58:52;;;;;;;6.93;6.33;;;12.90;99.90;;;;;;5044811;28;20531;-80
2023/06/17 03:01:21;;;;;;;4.60;4.10;;;12.80;99.90;;;;;;5046513;28;20449;-79
2023/06/17 03:03:48;;;;;;;6.37;5.07;;;12.70;99.90;;;;;;5045331;28;20465;-79
2023/06/17 03:06:18;;;;;;;5.97;5.43;;;12.80;99.90;;;;;;5046350;28;20484;-80
2023/06/17 03:08:46;;;;;;;6.30;5.70;;;12.90;99.90;;;;;;5041986;28;20788;-81
2023/06/17 03:11:12;;;;;;;6.47;5.87;;;12.90;99.90;;;;;;5043804;28;20464;-81
2023/06/17 03:13:39;;;;;;;6.00;5.40;;;12.90;99.90;;;;;;5034965;28;20484;-79
2023/06/17 03:16:06;;;;;;;8.50;5.63;;;12.90;99.90;;;;;;5045488;28;20480;-80
2023/06/17 03:18:33;;;;;;;5.10;4.70;;;12.80;99.90;;;;;;5047910;28;20542;-80
2023/06/17 03:21:00;;;;;;;6.70;5.90;;;12.90;99.90;;;;;;5049893;28;20602;-80
2023/06/17 03:23:30;;;;;;;6.47;5.73;;;12.90;99.90;;;;;;5045553;28;20979;-80
2023/06/17 03:25:56;;;;;;;7.47;6.77;;;13.00;99.90;;;;;;5043714;28;20495;-79
2023/06/17 03:28:24;;;;;;;7.07;6.47;;;13.00;99.90;;;;;;5050399;28;20480;-81
2023/06/17 03:30:52;;;;;;;6.33;5.70;;;13.00;99.90;;;;;;5048545;28;20493;-81
2023/06/17 03:33:19;;;;;;;7.90;5.80;;;13.00;99.90;;;;;;5039434;28;20487;-80
2023/06/17 03:35:45;;;;;;;7.37;5.33;;;13.00;99.90;;;;;;5049328;28;20562;-80
2023/06/17 03:38:13;;;;;;;6.97;6.40;;;13.00;99.90;;;;;;5048417;28;20495;-80
2023/06/17 03:40:41;;;;;;;8.60;6.10;;;13.10;99.90;;;;;;5047941;28;21025;-80
2023/06/17 03:43:08;;;;;;;6.43;5.83;;;13.30;99.90;;;;;;5049396;28;20947;-81
2023/06/17 03:45:35;;;;;;;6.50;5.90;;;13.30;99.90;;;;;;5049445;28;20574;-80
2023/06/17 03:48:03;;;;;;;6.83;6.17;;;13.30;99.90;;;;;;5048492;28;20449;-80
2023/06/17 03:50:30;;;;;;;6.67;6.00;;;13.30;99.90;;;;;;5044123;28;21021;-80
2023/06/17 03:52:57;;;;;;;7.67;6.40;;;13.30;99.90;;;;;;5051920;28;20471;-80
2023/06/17 03:55:24;;;;;;;6.60;6.00;;;13.30;99.90;;;;;;5047926;28;20560;-80
2023/06/17 03:57:53;;;;;;;7.83;6.20;;;13.40;99.90;;;;;;5047694;28;20959;-80
2023/06/17 04:00:20;;;;;;;8.00;7.20;;;13.40;99.90;;;;;;5047714;28;20467;-80
2023/06/17 04:02:49;;;;;;;7.00;5.33;;;13.50;99.90;;;;;;5044969;28;20480;-80
2023/06/17 04:05:17;;;;;;;13.37;6.50;;;13.50;99.90;;;;;;5052135;28;20489;-80
2023/06/17 04:07:44;;;;;;;5.77;5.27;;;13.50;99.90;;;;;;5037810;28;20469;-80
2023/06/17 04:10:11;;;;;;;6.20;5.60;;;13.50;99.90;;;;;;5042429;28;20495;-80
2023/06/17 04:12:39;;;;;;;6.33;5.87;;;13.40;99.90;;;;;;5040706;28;20599;-80
2023/06/17 04:15:09;;;;;;;6.13;5.63;;;13.50;99.90;;;;;;5037477;28;20453;-80
2023/06/17 04:17:37;;;;;;;5.90;5.40;;;13.40;99.90;;;;;;5038065;28;20545;-81
2023/06/17 04:20:10;;;;;;;5.27;4.73;;;13.50;99.90;;;;;;5044599;28;20457;-81
2023/06/17 04:22:37;;;;;;;6.23;5.63;;;13.60;99.90;;;;;;5043143;28;21193;-80
2023/06/17 04:25:05;;;;;;;6.60;5.90;;;13.60;99.90;;;;;;5042000;28;20490;-84
2023/06/17 04:27:32;;;;;;;8.20;6.10;;;13.50;99.90;;;;;;5042022;28;20587;-83
2023/06/17 04:30:01;;;;;;;5.70;5.00;;;13.60;99.90;;;;;;5043176;28;21323;-84
2023/06/17 04:32:29;;;;;;;6.17;5.57;;;13.60;99.90;;;;;;5036715;28;21034;-82
2023/06/17 04:34:56;;;;;;;7.13;5.60;;;13.60;99.90;;;;;;5040516;28;20516;-82
2023/06/17 04:37:23;;;;;;;6.73;6.03;;;13.60;99.90;;;;;;5038301;28;20536;-82
2023/06/17 04:39:52;;;;;;;6.80;6.10;;;13.60;99.90;;;;;;5043473;28;20455;-83
2023/06/17 04:42:19;;;;;;;5.47;5.07;;;13.70;99.90;;;;;;5038696;28;20470;-84
2023/06/17 04:44:48;;;;;;;7.97;6.40;;;13.80;99.90;;;;;;5043968;28;21049;-82
2023/06/17 04:47:16;;;;;;;8.57;5.97;;;13.80;99.90;;;;;;5037415;28;21058;-81
2023/06/17 04:49:45;;;;;;;5.17;4.77;;;13.70;99.90;;;;;;5045063;28;20587;-82
2023/06/17 04:52:12;;;;;;;6.00;5.43;;;13.70;99.90;;;;;;5030780;28;20474;-82
2023/06/17 04:54:39;;;;;;;8.23;6.60;;;13.60;99.90;;;;;;5034629;28;20492;-82
2023/06/17 04:57:07;;;;;;;6.97;5.30;;;13.70;99.90;;;;;;5034309;28;20598;-82
2023/06/17 04:59:34;;;;;;;5.80;5.30;;;13.90;99.90;;;;;;5036984;28;20497;-79
2023/06/17 05:02:01;;;;;;;9.43;6.60;;;13.90;99.90;;;;;;5044535;28;20483;-85
2023/06/17 05:04:28;;;;;;;6.53;5.63;;;14.00;99.90;;;;;;5042128;28;21069;-82
2023/06/17 05:06:56;;;;;;;8.23;6.30;;;13.90;99.90;;;;;;5041027;28;20485;-82
2023/06/17 05:09:23;;;;;;;7.27;6.70;;;13.90;99.90;;;;;;5040428;28;20458;-83
2023/06/17 05:11:50;;;;;;;16.40;8.60;;;13.90;99.90;;;;;;5045600;28;20480;-83
2023/06/17 05:14:17;;;;;;;7.03;6.43;;;14.00;99.90;;;;;;5041933;28;20476;-85
2023/06/17 05:16:44;;;;;;;9.97;7.47;;;14.20;99.90;;;;;;5036557;28;20923;-83
2023/06/17 05:19:11;;;;;;;7.73;6.23;;;14.10;99.90;;;;;;5038613;28;20453;-82
2023/06/17 05:21:38;;;;;;;7.60;7.00;;;14.20;99.90;;;;;;5038019;28;20543;-82
2023/06/17 05:24:07;;;;;;;10.23;8.20;;;14.40;99.90;;;;;;5040216;28;20965;-82
2023/06/17 05:26:34;;;;;;;7.87;7.17;;;14.70;99.90;;;;;;5040275;28;20547;-85
2023/06/17 05:29:01;;;;;;;7.47;6.70;;;14.80;99.90;;;;;;5042537;28;20492;-85
2023/06/17 05:31:28;;;;;;;7.40;6.80;;;15.00;99.90;;;;;;5042601;28;20999;-83
2023/06/17 05:33:55;;;;;;;7.97;7.27;;;15.00;99.90;;;;;;5038922;28;20465;-83
2023/06/17 05:36:22;;;;;;;6.60;5.93;;;15.00;99.90;;;;;;5039842;28;20481;-82
2023/06/17 05:38:49;;;;;;;8.03;6.53;;;15.00;99.90;;;;;;5038071;28;20486;-84
2023/06/17 05:41:17;;;;;;;7.67;5.70;;;14.70;99.90;;;;;;5028462;28;21048;-86
2023/06/17 05:43:46;;;;;;;8.17;7.53;;;14.60;99.90;;;;;;5041964;28;20497;-82
2023/06/17 05:46:13;;;;;;;6.70;6.10;;;14.60;99.90;;;;;;5034051;28;20485;-82
2023/06/17 05:48:40;;;;;;;8.63;7.20;;;14.40;99.90;;;;;;5034435;28;20446;-83
2023/06/17 05:51:07;;;;;;;8.30;7.40;;;14.50;99.90;;;;;;5033569;28;20450;-84
2023/06/17 05:53:33;;;;;;;7.97;7.20;;;14.50;99.90;;;;;;5041957;28;20493;-83
2023/06/17 05:56:00;;;;;;;8.13;7.33;;;14.60;99.90;;;;;;5047963;28;20457;-82
2023/06/17 05:58:29;;;;;;;6.20;5.60;;;14.80;99.90;;;;;;5046600;28;20524;-84
2023/06/17 06:00:56;;;;;;;8.20;7.40;;;14.90;99.90;;;;;;5045439;28;20501;-83
2023/06/17 06:03:22;;;;;;;6.57;5.90;;;15.20;99.90;;;;;;5047155;28;20473;-84
2023/06/17 06:05:49;;;;;;;10.70;7.20;;;15.30;99.90;;;;;;5046731;28;20476;-82
2023/06/17 06:08:16;;;;;;;6.70;6.10;;;15.30;99.90;;;;;;5039981;28;20487;-83
2023/06/17 06:10:43;;;;;;;7.67;6.97;;;15.50;99.90;;;;;;5047634;28;20515;-83
2023/06/17 06:13:10;;;;;;;9.90;7.37;;;15.70;99.90;;;;;;5047726;28;20488;-82
2023/06/17 06:15:38;;;;;;;8.23;7.27;;;16.10;99.90;;;;;;5045751;28;21017;-82
2023/06/17 06:18:05;;;;;;;7.83;7.03;;;16.10;99.90;;;;;;5040979;28;20465;-82
2023/06/17 06:20:32;;;;;;;5.80;5.30;;;16.00;99.90;;;;;;5047334;28;20536;-81
2023/06/17 06:23:00;;;;;;;8.93;7.30;;;15.60;99.90;;;;;;5047038;28;20477;-82
2023/06/17 06:25:27;;;;;;;6.70;6.20;;;15.70;99.90;;;;;;5046548;28;20880;-82
2023/06/17 06:27:54;;;;;;;7.17;6.07;;;15.80;99.90;;;;;;5043637;28;20578;-84
2023/06/17 06:30:21;;;;;;;6.63;6.00;;;15.90;99.90;;;;;;5040629;28;20504;-83
2023/06/17 06:32:49;;;;;;;6.17;5.67;;;16.30;99.90;;;;;;5033902;28;20457;-82
2023/06/17 06:35:16;;;;;;;7.63;6.93;;;16.80;99.90;;;;;;5038938;28;20519;-83
2023/06/17 06:37:43;;;;;;;7.00;5.63;;;16.80;99.90;;;;;;5040028;28;20469;-85
2023/06/17 06:40:11;;;;;;;5.73;5.30;;;16.70;99.90;;;;;;5038260;28;20544;-83
2023/06/17 06:42:38;;;;;;;6.30;5.80;;;17.00;99.90;;;;;;5034848;28;20509;-85
2023/06/17 06:45:06;;;;;;;8.00;5.80;;;17.50;99.90;;;;;;5032122;28;20442;-82
2023/06/17 06:47:34;;;;;;;7.13;6.33;;;18.10;99.90;;;;;;5035933;28;20486;-84
2023/06/17 06:50:02;;;;;;;5.50;5.00;;;18.50;99.90;;;;;;5035095;28;20503;-82
2023/06/17 06:52:29;;;;;;;5.90;5.40;;;18.70;99.90;;;;;;5038619;28;20493;-82
2023/06/17 06:54:56;;;;;;;6.10;5.60;;;19.00;99.90;;;;;;5045043;28;20483;-82
2023/06/17 06:57:23;;;;;;;4.77;4.37;;;19.10;99.90;;;;;;5043718;28;20497;-82
2023/06/17 06:59:50;;;;;;;10.93;5.70;;;19.30;99.90;;;;;;5043688;28;20567;-83
2023/06/17 07:02:18;;;;;;;6.27;4.77;;;19.40;99.90;;;;;;5036800;28;20914;-81
2023/06/17 07:04:45;;;;;;;4.73;4.40;;;18.80;99.90;;;;;;5035629;28;20553;-81
2023/06/17 07:07:14;;;;;;;6.10;5.57;;;18.50;99.90;;;;;;5037812;28;20586;-81
2023/06/17 07:09:41;;;;;;;5.20;4.70;;;18.60;99.90;;;;;;5025567;28;20462;-82
2023/06/17 07:12:08;;;;;;;5.17;4.77;;;18.50;99.90;;;;;;5041031;28;20517;-81
2023/06/17 07:14:35;;;;;;;5.63;5.10;;;18.80;99.90;;;;;;5036393;28;20520;-81
2023/06/17 07:17:02;;;;;;;5.13;4.63;;;18.80;99.90;;;;;;5040603;28;20453;-81
2023/06/17 07:19:29;;;;;;;6.53;5.73;;;18.60;99.90;;;;;;5035029;28;20516;-81
2023/06/17 07:21:56;;;;;;;6.17;5.60;;;18.50;99.90;;;;;;5039053;28;20467;-81
2023/06/17 07:24:24;;;;;;;5.13;4.67;;;18.90;99.90;;;;;;5038550;28;20456;-83
2023/06/17 07:26:51;;;;;;;5.20;4.70;;;18.80;99.90;;;;;;5036266;28;20513;-82
2023/06/17 07:29:18;;;;;;;6.13;5.53;;;18.50;99.90;;;;;;5032235;28;20529;-81
2023/06/17 07:31:45;;;;;;;5.60;5.10;;;18.70;99.90;;;;;;5041669;28;20481;-80
2023/06/17 07:34:11;;;;;;;6.17;5.67;;;18.90;99.90;;;;;;5042743;28;20480;-83
2023/06/17 07:36:38;;;;;;;5.10;4.60;;;18.90;99.90;;;;;;5039552;28;20471;-82
2023/06/17 07:39:06;;;;;;;5.73;5.23;;;19.30;99.90;;;;;;5030863;28;21211;-81
2023/06/17 07:41:34;;;;;;;5.57;5.17;;;19.90;99.90;;;;;;5032867;28;20470;-80
2023/06/17 07:44:01;;;;;;;6.37;5.83;;;20.30;99.90;;;;;;5026636;28;20450;-81
2023/06/17 07:46:28;;;;;;;5.47;4.97;;;20.70;99.90;;;;;;5039919;28;20582;-81
2023/06/17 07:48:55;;;;;;;5.00;4.60;;;20.70;99.90;;;;;;5031481;28;20485;-81
2023/06/17 07:51:22;;;;;;;5.27;4.77;;;20.90;99.90;;;;;;5030871;28;20509;-81
2023/06/17 07:53:49;;;;;;;4.90;4.50;;;20.70;99.90;;;;;;5041092;28;20453;-80
2023/06/17 07:56:18;;;;;;;5.40;5.00;;;20.60;99.90;;;;;;5043250;28;20473;-80
2023/06/17 07:58:46;;;;;;;5.27;4.77;;;20.90;99.90;;;;;;5044877;28;20517;-83
2023/06/17 08:01:13;;;;;;;5.63;5.13;;;21.10;99.90;;;;;;5043283;28;20523;-82
2023/06/17 08:03:40;;;;;;;5.30;4.90;;;21.20;99.90;;;;;;5045661;28;20539;-80
2023/06/17 08:06:08;;;;;;;5.90;5.33;;;21.50;98.60;;;;;;5039207;28;20523;-80
2023/06/17 08:08:35;;;;;;;5.27;4.77;;;21.50;97.30;;;;;;5041873;28;20464;-81
2023/06/17 08:11:02;;;;;;;5.80;5.20;;;21.20;95.20;;;;;;5030216;28;20555;-82
2023/06/17 08:13:28;;;;;;;5.63;5.13;;;21.80;98.80;;;;;;5039621;28;21173;-80
2023/06/17 08:15:57;;;;;;;5.73;5.00;;;22.10;96.30;;;;;;5043744;28;20485;-81
2023/06/17 08:18:24;;;;;;;6.60;5.40;;;22.20;94.60;;;;;;5042197;28;20492;-80
2023/06/17 08:20:51;;;;;;;5.37;4.87;;;21.50;94.20;;;;;;5033092;28;20442;-80
2023/06/17 08:23:18;;;;;;;5.70;5.20;;;21.30;96.10;;;;;;5037190;28;20481;-80
2023/06/17 08:25:45;;;;;;;5.37;4.93;;;21.20;95.40;;;;;;5037006;28;20493;-81
2023/06/17 08:28:12;;;;;;;6.87;6.30;;;21.00;96.30;;;;;;5032782;28;20551;-81
2023/06/17 08:30:39;;;;;;;6.40;5.80;;;21.10;97.00;;;;;;5045586;28;20471;-81
2023/06/17 08:33:07;;;;;;;5.27;4.13;;;21.40;97.40;;;;;;5039767;28;20539;-81
2023/06/17 08:35:34;;;;;;;5.70;5.30;;;21.80;95.30;;;;;;5044591;28;20552;-80
2023/06/17 08:38:01;;;;;;;4.97;4.57;;;21.80;94.90;;;;;;5042501;28;21158;-81
2023/06/17 08:40:29;;;;;;;6.13;5.57;;;22.10;95.00;;;;;;5042750;28;20473;-80
2023/06/17 08:43:01;;;;;;;5.40;5.00;;;22.20;94.90;;;;;;5044412;28;20457;-80
2023/06/17 08:45:29;;;;;;;5.60;5.10;;;22.80;95.50;;;;;;5037621;28;20835;-82
2023/06/17 08:47:56;;;;;;;5.87;5.37;;;22.90;93.90;;;;;;5032083;28;20517;-80
2023/06/17 08:50:25;;;;;;;5.67;5.10;;;22.30;92.50;;;;;;5039214;28;20533;-81
2023/06/17 08:52:53;;;;;;;6.70;6.17;;;21.80;93.40;;;;;;5045776;28;20990;-80
2023/06/17 08:55:21;;;;;;;6.53;5.93;;;21.90;94.00;;;;;;5045392;28;20948;-81
2023/06/17 08:57:50;;;;;;;6.40;5.83;;;22.10;93.50;;;;;;5047492;28;20551;-80
2023/06/17 09:00:17;;;;;;;7.40;4.73;;;22.40;93.90;;;;;;5047031;28;20484;-80
2023/06/17 09:02:45;;;;;;;5.90;5.50;;;22.40;92.70;;;;;;5037624;28;20493;-80
2023/06/17 09:05:12;;;;;;;7.07;5.33;;;22.20;91.50;;;;;;5048054;28;20453;-80
2023/06/17 09:07:42;;;;;;;4.60;4.20;;;21.70;94.00;;;;;;5046895;28;20485;-79
2023/06/17 09:10:09;;;;;;;7.83;4.33;;;21.70;95.00;;;;;;5046843;28;20485;-81
2023/06/17 09:12:38;;;;;;;4.40;4.00;;;21.80;95.70;;;;;;5044670;28;20469;-81
2023/06/17 09:15:07;;;;;;;34.73;8.10;;;21.90;94.10;;;;;;5047153;28;20453;-81
2023/06/17 09:17:34;;;;;;;5.30;4.90;;;22.10;93.50;;;;;;5047038;28;20626;-81
2023/06/17 09:20:12;;;;;;;5.87;5.37;;;22.00;92.60;;;;;;5042728;28;20543;-81
2023/06/17 09:22:45;;;;;;;5.90;5.40;;;22.30;92.90;;;;;;5047095;28;20463;-80
2023/06/17 09:25:14;;;;;;;5.23;4.73;;;22.30;93.90;;;;;;5046173;28;20986;-81
2023/06/17 09:27:48;;;;;;;5.73;5.23;;;22.40;92.10;;;;;;5046332;28;20485;-81
2023/06/17 09:30:16;;;;;;;5.63;4.53;;;22.50;92.30;;;;;;5046140;28;20460;-81
2023/06/17 09:32:44;;;;;;;5.30;4.90;;;22.60;91.00;;;;;;5047498;28;20469;-81
2023/06/17 09:35:15;;;;;;;5.17;4.77;;;22.70;90.20;;;;;;5040380;28;21014;-81
2023/06/17 09:37:45;;;;;;;4.57;4.17;;;23.00;87.50;;;;;;5047606;28;20965;-80
2023/06/17 09:40:13;;;;;;;6.53;5.30;;;23.00;86.30;;;;;;5042728;28;20833;-82
2023/06/17 09:42:43;;;;;;;3.30;3.10;;;23.20;86.60;;;;;;5047355;28;20562;-81
2023/06/17 09:45:12;;;;;;;4.30;3.90;;;23.30;88.50;;;;;;5048226;28;21279;-80
2023/06/17 09:47:40;;;;;;;4.60;4.30;;;22.70;81.30;;;;;;5047832;28;20497;-80
2023/06/17 09:50:10;;;;;;;4.13;3.83;;;22.00;82.10;;;;;;5046237;28;20465;-81
2023/06/17 09:52:38;;;;;;;3.40;3.10;;;22.00;86.60;;;;;;5037188;28;20507;-82
2023/06/17 09:55:09;;;;;;;3.73;3.43;;;22.10;84.00;;;;;;5047459;28;20529;-81
2023/06/17 09:57:39;;;;;;;3.97;3.23;;;22.20;84.00;;;;;;5044865;28;20864;-81
2023/06/17 10:00:10;;;;;;;5.03;4.53;;;22.60;86.60;;;;;;5041458;28;20493;-81
2023/06/17 10:02:38;;;;;;;3.80;3.10;;;23.50;88.20;;;;;;5047026;28;20461;-81
2023/06/17 10:05:07;;;;;;;5.17;3.67;;;23.90;81.70;;;;;;5047733;28;20927;-82
2023/06/17 10:07:36;;;;;;;3.67;3.40;;;23.70;76.60;;;;;;5047726;28;20517;-81
2023/06/17 10:10:04;;;;;;;4.93;3.60;;;23.10;75.50;;;;;;5046868;28;20511;-81
2023/06/17 10:12:34;;;;;;;3.10;2.80;;;23.00;74.20;;;;;;5043857;28;20542;-80
2023/06/17 10:15:03;;;;;;;2.90;2.70;;;23.20;72.10;;;;;;5046493;28;20534;-80
2023/06/17 10:17:32;;;;;;;3.07;2.87;;;23.10;70.30;;;;;;5030861;28;20466;-80
2023/06/17 10:20:05;;;;;;;2.73;2.53;;;23.00;73.10;;;;;;5037818;28;20512;-80
2023/06/17 10:22:32;;;;;;;3.03;2.83;;;22.90;70.40;;;;;;5034621;28;20968;-81
2023/06/17 10:24:59;;;;;;;2.90;2.60;;;23.10;73.00;;;;;;5029975;28;20481;-80
2023/06/17 10:27:26;;;;;;;3.77;3.40;;;23.20;71.40;;;;;;5041714;28;20485;-81
2023/06/17 10:29:58;;;;;;;3.20;3.00;;;23.30;70.80;;;;;;5033086;28;20445;-81
2023/06/17 10:32:26;;;;;;;3.93;3.57;;;23.30;72.10;;;;;;5041157;28;20543;-81
2023/06/17 10:35:12;;;;;;;3.77;3.47;;;23.40;71.30;;;;;;5039168;28;20656;-82
2023/06/17 10:37:43;;;;;;;3.43;3.13;;;23.10;69.50;;;;;;5030298;28;20529;-80
2023/06/17 10:40:22;;;;;;;2.70;2.50;;;23.30;71.30;;;;;;5035055;28;20469;-80
2023/06/17 10:42:59;;;;;;;3.90;2.37;;;23.40;64.30;;;;;;5031951;28;20534;-80
2023/06/17 10:45:29;;;;;;;2.67;2.47;;;23.20;63.80;;;;;;5034374;28;20512;-81
2023/06/17 10:48:14;;;;;;;2.97;2.77;;;23.20;63.40;;;;;;5038359;28;20495;-81
2023/06/17 10:50:42;;;;;;;5.47;3.00;;;23.40;68.40;;;;;;5032860;28;20874;-81
2023/06/17 10:53:10;;;;;;;2.67;2.47;;;23.70;61.50;;;;;;5038489;28;20832;-80
2023/06/17 10:55:37;;;;;;;2.90;2.50;;;23.30;57.90;;;;;;5044358;28;20478;-82
2023/06/17 10:58:03;;;;;;;2.30;2.10;;;23.40;64.10;;;;;;5037391;28;21249;-82
2023/06/17 11:00:32;;;;;;;3.30;2.73;;;23.50;62.30;;;;;;5044095;28;20530;-82
2023/06/17 11:02:59;;;;;;;3.80;3.23;;;23.50;62.00;;;;;;5038663;28;20492;-83
2023/06/17 11:05:26;;;;;;;4.67;2.03;;;23.60;57.60;;;;;;5041168;28;20999;-82
2023/06/17 11:07:53;;;;;;;2.70;2.50;;;23.70;59.50;;;;;;5036480;28;20517;-79
2023/06/17 11:10:26;;;;;;;2.30;2.07;;;23.60;59.20;;;;;;5037393;28;21062;-81
2023/06/17 11:12:54;;;;;;;2.57;2.47;;;23.60;65.40;;;;;;5042762;28;20502;-83
2023/06/17 11:15:22;;;;;;;2.97;2.77;;;23.80;58.20;;;;;;5041189;28;20539;-80
2023/06/17 11:17:59;;;;;;;3.13;2.83;;;23.20;53.00;;;;;;5040628;28;21010;-81
2023/06/17 11:20:26;;;;;;;2.63;2.43;;;22.60;53.60;;;;;;5037357;28;20465;-81
2023/06/17 11:22:53;;;;;;;2.23;2.03;;;22.70;57.20;;;;;;5038619;28;20516;-81
2023/06/17 11:25:21;;;;;;;2.60;2.50;;;23.30;57.10;;;;;;5044540;28;20550;-81
2023/06/17 11:27:49;;;;;;;2.70;2.50;;;23.70;56.80;;;;;;5034871;28;20551;-81
2023/06/17 11:30:17;;;;;;;2.40;2.27;;;24.00;52.90;;;;;;5042533;28;20460;-82
2023/06/17 11:32:45;;;;;;;3.17;2.87;;;24.00;56.30;;;;;;5031994;28;20456;-82
2023/06/17 11:35:14;;;;;;;4.57;3.63;;;24.10;57.80;;;;;;5043310;28;20469;-81
2023/06/17 11:37:42;;;;;;;3.57;3.23;;;24.60;60.70;;;;;;5036752;28;20462;-81
2023/06/17 11:40:11;;;;;;;4.23;3.70;;;24.70;57.20;;;;;;5046433;28;20571;-81
2023/06/17 11:42:39;;;;;;;4.10;3.80;;;24.40;56.70;;;;;;5046683;28;20552;-82
2023/06/17 11:45:07;;;;;;;3.47;3.17;;;24.30;56.60;;;;;;5048704;28;20457;-80
2023/06/17 11:47:35;;;;;;;5.23;3.57;;;24.40;58.40;;;;;;5038146;28;20485;-81
2023/06/17 11:50:04;;;;;;;3.50;3.07;;;24.60;58.30;;;;;;5041518;28;20462;-81
2023/06/17 11:52:32;;;;;;;3.30;3.07;;;24.80;57.50;;;;;;5047352;28;20533;-81
2023/06/17 11:54:59;;;;;;;4.53;3.37;;;24.70;59.50;;;;;;5050092;28;20445;-82
2023/06/17 11:57:27;;;;;;;3.47;2.73;;;25.10;58.80;;;;;;5051431;28;20500;-82
2023/06/17 12:00:00;;;;;;;2.37;2.20;;;25.30;56.70;;;;;;5048727;28;20490;-80
2023/06/17 12:02:28;;;;;;;3.03;2.83;;;25.30;52.50;;;;;;5039710;28;20452;-81
2023/06/17 12:04:55;;;;;;;3.50;3.10;;;25.10;47.60;;;;;;5036000;28;20452;-83
2023/06/17 12:07:22;;;;;;;2.33;2.20;;;25.00;46.60;;;;;;5034288;28;21084;-81
2023/06/17 12:09:55;;;;;;;4.57;2.87;;;24.90;45.40;;;;;;5032580;28;21185;-81
2023/06/17 12:12:33;;;;;;;3.77;3.47;;;24.60;43.80;;;;;;5037601;28;20489;-82
2023/06/17 12:15:03;;;;;;;2.93;2.73;;;24.60;43.40;;;;;;5041622;28;20450;-80
2023/06/17 12:17:38;;;;;;;2.77;2.43;;;24.20;44.20;;;;;;5037505;28;20457;-81
2023/06/17 12:20:07;;;;;;;2.80;2.60;;;24.20;44.80;;;;;;5039279;28;20468;-81
2023/06/17 12:22:34;;;;;;;2.77;2.57;;;24.40;45.20;;;;;;5037414;28;20442;-80
2023/06/17 12:25:03;;;;;;;4.77;3.13;;;24.70;46.50;;;;;;5047102;28;20452;-82
2023/06/17 12:27:31;;;;;;;4.20;2.67;;;24.80;46.50;;;;;;5042128;28;20492;-80
2023/06/17 12:30:00;;;;;;;2.47;2.27;;;24.80;47.30;;;;;;5037492;28;20480;-81
2023/06/17 12:32:28;;;;;;;4.87;2.60;;;24.90;48.70;;;;;;5035190;28;20454;-81
2023/06/17 12:34:55;;;;;;;3.57;2.70;;;25.30;43.80;;;;;;5036743;28;20486;-81
2023/06/17 12:37:27;;;;;;;2.93;2.73;;;25.30;44.50;;;;;;5039474;28;21071;-83
2023/06/17 12:39:56;;;;;;;3.67;3.37;;;25.70;45.80;;;;;;5031357;28;20463;-81
2023/06/17 12:42:24;;;;;;;3.57;3.27;;;25.60;44.50;;;;;;5040031;28;20479;-81
2023/06/17 12:44:51;;;;;;;2.70;2.30;;;25.40;43.40;;;;;;5033084;28;20545;-81
2023/06/17 12:47:19;;;;;;;3.50;3.23;;;25.60;46.30;;;;;;5031176;28;20461;-82
2023/06/17 12:49:46;;;;;;;4.23;3.30;;;25.60;45.90;;;;;;5039446;28;20483;-81